Kingston upon Thames, United Kingdom
Current Conditions -  °F | °C
As of 1:20 AM on Monday 22 Dec 2014 (Local Time) from EGLL Reporting Station
Broken Clouds Broken Clouds  
Wind Chill: 12°   Ceiling: 1100
Heat Index: 12°   Visibility: 6mi
Dew Point: 10°   Wind: 22mph
Humidity: 88%   Direction: 240°WSW
Pressure: 30.12"   Gusts: NA
Location:  51.41°N, 0.3°W
Report Text: EGLL 220120Z AUTO 24019KT 9999 BKN011 12/10 Q1020
Loading
Personal Weather Stations






























Interactive Weather Map New forecast layout! Learn more

10-Day Weather Forecast

Advertisements
Track Severe Weather on mobile